createdAt,value
2023-04-01T00:01:48.022Z,6.32
2023-04-01T00:04:15.110Z,5.25
2023-04-01T00:06:42.090Z,5.65
2023-04-01T00:09:09.064Z,4.95
2023-04-01T00:11:36.096Z,5.38
2023-04-01T00:14:03.078Z,5.60
2023-04-01T00:16:30.174Z,5.13
2023-04-01T00:18:57.235Z,4.90
2023-04-01T00:21:24.198Z,5.25
2023-04-01T00:23:52.071Z,4.80
2023-04-01T00:26:21.582Z,4.63
2023-04-01T00:28:48.941Z,5.60
2023-04-01T00:31:15.933Z,5.18
2023-04-01T00:33:43.036Z,5.63
2023-04-01T00:36:18.291Z,5.22
2023-04-01T00:38:45.900Z,5.65
2023-04-01T00:41:16.855Z,4.75
2023-04-01T00:43:44.893Z,5.25
2023-04-01T00:46:12.088Z,4.90
2023-04-01T00:48:49.867Z,5.15
2023-04-01T00:51:21.861Z,5.28
2023-04-01T00:53:50.535Z,5.85
2023-04-01T00:56:20.452Z,5.80
2023-04-01T01:01:16.067Z,5.13
2023-04-01T01:03:43.037Z,5.97
2023-04-01T01:06:32.975Z,5.28
2023-04-01T01:09:29.462Z,5.57
2023-04-01T01:12:12.398Z,5.78
2023-04-01T01:14:48.341Z,5.07
2023-04-01T01:17:41.998Z,6.10
2023-04-01T01:20:26.485Z,5.00
2023-04-01T01:23:08.252Z,4.28
2023-04-01T01:25:56.920Z,4.18
2023-04-01T01:28:48.905Z,4.18
2023-04-01T01:31:22.341Z,4.18
2023-04-01T01:34:30.542Z,3.85
2023-04-01T01:37:00.235Z,3.05
2023-04-01T01:39:30.403Z,2.33
2023-04-01T01:41:58.434Z,2.60
2023-04-01T01:44:25.597Z,2.28
2023-04-01T01:46:52.646Z,2.35
2023-04-01T01:49:19.623Z,2.30
2023-04-01T01:51:46.650Z,2.60
2023-04-01T01:54:15.636Z,2.05
2023-04-01T01:56:43.950Z,2.08
2023-04-01T01:59:11.493Z,2.05
2023-04-01T02:01:40.877Z,2.13
2023-04-01T02:04:14.766Z,1.80
2023-04-01T02:06:47.652Z,2.10
2023-04-01T02:09:14.833Z,1.83
2023-04-01T02:11:52.409Z,1.90
2023-04-01T02:14:27.634Z,1.67
2023-04-01T02:17:17.986Z,1.80
2023-04-01T02:20:09.989Z,1.77
2023-04-01T02:22:52.996Z,1.88
2023-04-01T02:25:22.881Z,1.63
2023-04-01T02:27:49.900Z,1.73
2023-04-01T02:30:17.213Z,2.20
2023-04-01T02:32:44.379Z,2.05
2023-04-01T02:35:12.397Z,2.25
2023-04-01T02:37:43.062Z,2.30
2023-04-01T02:40:11.895Z,1.90
2023-04-01T02:42:38.869Z,1.63
2023-04-01T02:45:06.628Z,2.08
2023-04-01T02:47:33.638Z,2.10
2023-04-01T02:50:00.722Z,1.88
2023-04-01T02:52:29.143Z,2.30
2023-04-01T02:54:57.466Z,1.95
2023-04-01T02:57:24.998Z,1.75
2023-04-01T02:59:52.023Z,1.60
2023-04-01T03:02:19.041Z,2.00
2023-04-01T03:04:46.879Z,2.30
2023-04-01T03:07:13.863Z,1.90
2023-04-01T03:09:41.117Z,1.90
2023-04-01T03:12:08.334Z,2.10
2023-04-01T03:14:45.403Z,2.00
2023-04-01T03:17:12.350Z,1.80
2023-04-01T03:19:39.418Z,1.67
2023-04-01T03:22:11.645Z,1.83
2023-04-01T03:24:38.640Z,1.85
2023-04-01T03:27:05.665Z,1.80
2023-04-01T03:29:32.727Z,1.50
2023-04-01T03:32:00.146Z,1.67
2023-04-01T03:34:27.485Z,1.60
2023-04-01T03:36:54.450Z,1.73
2023-04-01T03:39:21.462Z,1.60
2023-04-01T03:41:48.421Z,1.45
2023-04-01T03:44:15.645Z,1.58
2023-04-01T03:46:43.042Z,1.50
2023-04-01T03:49:12.891Z,1.63
2023-04-01T03:51:40.995Z,1.73
2023-04-01T03:54:08.310Z,1.60
2023-04-01T03:56:35.900Z,1.88
2023-04-01T03:59:04.092Z,1.48
2023-04-01T04:01:31.744Z,1.70
2023-04-01T04:03:58.836Z,1.80
2023-04-01T04:06:26.438Z,1.50
2023-04-01T04:08:53.758Z,1.55
2023-04-01T04:11:21.615Z,1.90
2023-04-01T04:13:49.349Z,1.33
2023-04-01T04:16:17.411Z,1.38
2023-04-01T04:18:48.874Z,1.50
2023-04-01T04:21:16.045Z,1.20
2023-04-01T04:23:43.726Z,1.33
2023-04-01T04:26:12.701Z,1.70
2023-04-01T04:28:40.173Z,1.30
2023-04-01T04:31:07.566Z,1.45
2023-04-01T04:33:36.367Z,1.23
2023-04-01T04:36:04.827Z,1.00
2023-04-01T04:38:31.854Z,1.25
2023-04-01T04:41:00.016Z,1.50
2023-04-01T04:43:27.096Z,1.08
2023-04-01T04:45:54.481Z,1.20
2023-04-01T04:48:21.517Z,1.17
2023-04-01T04:50:49.882Z,1.30
2023-04-01T04:53:18.856Z,1.40
2023-04-01T04:55:47.072Z,1.30
2023-04-01T04:58:32.578Z,1.25
2023-04-01T05:01:06.382Z,1.10
2023-04-01T05:03:33.688Z,1.27
2023-04-01T05:06:00.813Z,1.55
2023-04-01T05:08:27.820Z,1.20
2023-04-01T05:10:54.814Z,1.30
2023-04-01T05:13:21.946Z,1.40
2023-04-01T05:15:49.082Z,1.40
2023-04-01T05:18:17.209Z,1.13
2023-04-01T05:20:51.587Z,1.13
2023-04-01T05:23:19.378Z,1.67
2023-04-01T05:25:46.510Z,1.42
2023-04-01T05:28:13.726Z,1.33
2023-04-01T05:30:43.782Z,1.48
2023-04-01T05:33:31.378Z,1.33
2023-04-01T05:36:06.418Z,1.25
2023-04-01T05:38:33.451Z,1.15
2023-04-01T05:41:01.771Z,1.30
2023-04-01T05:43:30.963Z,1.23
2023-04-01T05:46:02.805Z,1.50
2023-04-01T05:48:37.580Z,1.35
2023-04-01T05:51:05.222Z,1.48
2023-04-01T05:53:32.253Z,1.52
2023-04-01T05:56:04.095Z,1.33
2023-04-01T05:58:36.280Z,1.40
2023-04-01T06:01:11.489Z,1.48
2023-04-01T06:03:44.156Z,1.27
2023-04-01T06:06:15.723Z,1.63
2023-04-01T06:08:43.420Z,1.48
2023-04-01T06:11:36.273Z,1.88
2023-04-01T06:14:40.136Z,1.85
2023-04-01T06:17:29.123Z,2.08
2023-04-01T06:20:13.955Z,1.75
2023-04-01T06:22:55.455Z,2.08
2023-04-01T06:25:44.214Z,1.80
2023-04-01T06:28:42.701Z,2.00
2023-04-01T06:31:13.016Z,1.63
2023-04-01T06:33:57.480Z,2.53
2023-04-01T06:36:43.632Z,2.38
2023-04-01T06:39:26.460Z,2.20
2023-04-01T06:42:00.408Z,2.00
2023-04-01T06:44:34.208Z,1.92
2023-04-01T06:47:25.699Z,2.00
2023-04-01T06:50:42.525Z,2.55
2023-04-01T06:53:44.472Z,2.67
2023-04-01T06:56:30.115Z,2.22
2023-04-01T06:59:35.790Z,2.40
2023-04-01T07:02:12.646Z,2.70
2023-04-01T07:04:42.443Z,2.50
2023-04-01T07:07:21.220Z,2.50
2023-04-01T07:10:00.319Z,2.08
2023-04-01T07:12:35.252Z,2.00
2023-04-01T07:15:22.218Z,2.70
2023-04-01T07:17:55.034Z,2.80
2023-04-01T07:20:27.946Z,2.10
2023-04-01T07:22:57.694Z,2.42
2023-04-01T07:25:56.789Z,2.60
2023-04-01T07:28:32.099Z,2.65
2023-04-01T07:31:27.273Z,3.08
2023-04-01T07:34:04.456Z,2.83
2023-04-01T07:36:41.005Z,2.67
2023-04-01T07:39:45.421Z,2.35
2023-04-01T07:43:04.761Z,2.22
2023-04-01T07:45:38.324Z,2.25
2023-04-01T07:48:21.096Z,2.22
2023-04-01T07:51:12.080Z,2.40
2023-04-01T07:53:58.843Z,2.17
2023-04-01T07:56:49.918Z,2.13
2023-04-01T07:59:41.356Z,2.40
2023-04-01T08:02:24.905Z,2.00
2023-04-01T08:04:54.639Z,2.35
2023-04-01T08:07:26.578Z,2.40
2023-04-01T08:10:18.389Z,2.90
2023-04-01T08:13:25.625Z,3.35
2023-04-01T08:16:48.241Z,3.70
2023-04-01T08:19:57.652Z,3.65
2023-04-01T08:22:51.732Z,3.03
2023-04-01T08:25:34.046Z,3.70
2023-04-01T08:28:10.251Z,3.42
2023-04-01T08:30:59.773Z,4.03
2023-04-01T08:33:31.292Z,3.60
2023-04-01T08:36:44.566Z,3.60
2023-04-01T08:39:40.672Z,3.20
2023-04-01T08:42:22.825Z,3.67
2023-04-01T08:45:14.428Z,3.65
2023-04-01T08:47:56.865Z,2.95
2023-04-01T08:53:51.037Z,2.83
2023-04-01T08:56:19.967Z,2.85
2023-04-01T08:59:11.841Z,2.80
2023-04-01T09:02:06.003Z,3.55
2023-04-01T09:04:59.436Z,3.20
2023-04-01T09:07:50.937Z,3.20
2023-04-01T09:10:41.511Z,3.65
2023-04-01T09:13:56.371Z,2.92
2023-04-01T09:16:45.058Z,2.90
2023-04-01T09:19:34.312Z,3.40
2023-04-01T09:22:13.052Z,2.90
2023-04-01T09:25:10.234Z,2.63
2023-04-01T09:27:47.267Z,2.78
2023-04-01T09:30:41.768Z,2.70
2023-04-01T09:33:50.280Z,2.88
2023-04-01T09:36:31.929Z,2.92
2023-04-01T09:39:01.100Z,2.40
2023-04-01T09:41:31.946Z,3.33
2023-04-01T09:44:16.606Z,2.67
2023-04-01T09:47:31.710Z,2.15
2023-04-01T09:50:16.599Z,2.58
2023-04-01T09:52:45.359Z,2.47
2023-04-01T09:55:46.957Z,2.97
2023-04-01T09:58:43.704Z,2.03
2023-04-01T10:01:58.823Z,2.30
2023-04-01T10:05:01.517Z,2.60
2023-04-01T10:07:51.156Z,2.28
2023-04-01T10:10:37.367Z,2.27
2023-04-01T10:13:50.244Z,2.38
2023-04-01T10:16:35.406Z,2.60
2023-04-01T10:19:11.461Z,2.42
2023-04-01T10:21:57.829Z,2.40
2023-04-01T10:24:43.351Z,2.30
2023-04-01T10:27:34.918Z,2.75
2023-04-01T10:30:35.820Z,2.60
2023-04-01T10:33:31.866Z,2.17
2023-04-01T10:36:01.751Z,2.03
2023-04-01T10:38:43.984Z,2.50
2023-04-01T10:41:36.248Z,2.50
2023-04-01T10:45:07.811Z,2.20
2023-04-01T10:48:11.990Z,1.70
2023-04-01T10:51:02.354Z,1.80
2023-04-01T10:53:42.652Z,2.08
2023-04-01T10:56:45.905Z,1.92
2023-04-01T10:59:58.726Z,1.75
2023-04-01T11:03:06.429Z,1.83
2023-04-01T11:06:06.284Z,2.05
2023-04-01T11:08:39.911Z,2.63
2023-04-01T11:11:18.665Z,2.65
2023-04-01T11:13:50.212Z,2.50
2023-04-01T11:16:25.195Z,3.05
2023-04-01T11:19:27.504Z,3.05
2023-04-01T11:22:01.365Z,3.17
2023-04-01T11:24:56.189Z,3.45
2023-04-01T11:28:03.962Z,2.90
2023-04-01T11:30:54.844Z,3.20
2023-04-01T11:33:28.821Z,2.90
2023-04-01T11:36:01.266Z,3.25
2023-04-01T11:38:36.841Z,3.22
2023-04-01T11:41:32.118Z,3.03
2023-04-01T11:44:23.643Z,3.58
2023-04-01T11:47:35.070Z,3.75
2023-04-01T11:50:33.926Z,3.90
2023-04-01T11:53:20.949Z,3.80
2023-04-01T11:56:22.984Z,3.30
2023-04-01T11:59:00.620Z,3.00
2023-04-01T12:01:42.218Z,3.15
2023-04-01T12:04:23.819Z,2.95
2023-04-01T12:06:56.471Z,3.22
2023-04-01T12:09:48.420Z,3.60
2023-04-01T12:12:18.849Z,3.25
2023-04-01T12:15:09.664Z,3.35
2023-04-01T12:17:56.259Z,3.00
2023-04-01T12:20:31.578Z,4.00
2023-04-01T12:23:35.723Z,2.80
2023-04-01T12:26:43.987Z,2.50
2023-04-01T12:29:26.010Z,2.47
2023-04-01T12:32:30.256Z,2.78
2023-04-01T12:35:18.551Z,3.38
2023-04-01T12:37:45.761Z,2.97
2023-04-01T12:40:21.328Z,2.97
2023-04-01T12:42:58.734Z,2.55
2023-04-01T12:45:41.139Z,2.40
2023-04-01T12:48:41.247Z,2.42
2023-04-01T12:51:22.962Z,2.50
2023-04-01T12:54:01.343Z,2.20
2023-04-01T12:56:40.042Z,2.45
2023-04-01T12:59:12.781Z,1.70
2023-04-01T13:02:01.227Z,2.30
2023-04-01T13:04:49.786Z,1.73
2023-04-01T13:07:35.642Z,1.77
2023-04-01T13:10:20.980Z,1.90
2023-04-01T13:13:06.257Z,2.05
2023-04-01T13:15:35.777Z,2.00
2023-04-01T13:18:27.298Z,1.65
2023-04-01T13:21:09.551Z,1.67
2023-04-01T13:24:02.557Z,1.58
2023-04-01T13:26:36.164Z,1.60
2023-04-01T13:29:08.034Z,1.50
2023-04-01T13:31:47.397Z,2.15
2023-04-01T13:34:51.412Z,1.63
2023-04-01T13:37:27.228Z,1.65
2023-04-01T13:40:27.386Z,1.60
2023-04-01T13:43:18.520Z,1.58
2023-04-01T13:46:03.915Z,1.80
2023-04-01T13:48:56.154Z,1.65
2023-04-01T13:51:41.983Z,2.28
2023-04-01T13:54:11.976Z,2.00
2023-04-01T13:57:07.063Z,2.25
2023-04-01T13:59:58.113Z,2.55
2023-04-01T14:02:48.429Z,2.10
2023-04-01T14:05:43.798Z,1.70
2023-04-01T14:08:23.456Z,1.67
2023-04-01T14:11:12.700Z,1.63
2023-04-01T14:13:51.600Z,1.70
2023-04-01T14:17:00.142Z,1.40
2023-04-01T14:20:05.177Z,1.40
2023-04-01T14:22:52.014Z,1.35
2023-04-01T14:25:30.223Z,1.65
2023-04-01T14:28:03.538Z,1.58
2023-04-01T14:30:42.504Z,1.70
2023-04-01T14:33:12.283Z,2.15
2023-04-01T14:35:43.031Z,1.60
2023-04-01T14:38:57.289Z,1.70
2023-04-01T14:41:48.917Z,1.60
2023-04-01T14:44:24.933Z,1.60
2023-04-01T14:47:03.706Z,1.50
2023-04-01T14:49:50.129Z,1.75
2023-04-01T14:52:29.952Z,1.88
2023-04-01T14:57:28.647Z,1.90
2023-04-01T15:00:02.948Z,2.17
2023-04-01T15:03:11.307Z,2.40
2023-04-01T15:06:05.538Z,2.45
2023-04-01T15:08:34.426Z,2.50
2023-04-01T15:11:05.507Z,2.40
2023-04-01T15:13:49.912Z,2.15
2023-04-01T15:16:38.563Z,2.13
2023-04-01T15:19:17.486Z,2.63
2023-04-01T15:21:44.506Z,2.33
2023-04-01T15:24:20.737Z,2.25
2023-04-01T15:27:06.696Z,2.20
2023-04-01T15:29:44.819Z,2.40
2023-04-01T15:32:30.933Z,2.63
2023-04-01T15:35:24.942Z,2.15
2023-04-01T15:37:55.115Z,2.55
2023-04-01T15:40:31.989Z,2.55
2023-04-01T15:43:04.609Z,2.50
2023-04-01T15:45:42.051Z,2.53
2023-04-01T15:48:11.791Z,2.63
2023-04-01T15:51:19.143Z,2.50
2023-04-01T15:53:56.158Z,2.90
2023-04-01T15:56:40.969Z,2.63
2023-04-01T15:59:34.637Z,2.40
2023-04-01T16:02:32.863Z,2.92
2023-04-01T16:05:09.953Z,2.53
2023-04-01T16:07:43.964Z,2.50
2023-04-01T16:10:48.657Z,3.13
2023-04-01T16:13:33.848Z,3.05
2023-04-01T16:16:14.170Z,2.92
2023-04-01T16:18:51.259Z,2.75
2023-04-01T16:21:37.543Z,3.00
2023-04-01T16:24:31.519Z,3.05
2023-04-01T16:27:57.227Z,2.80
2023-04-01T16:30:51.870Z,2.38
2023-04-01T16:33:47.985Z,2.88
2023-04-01T16:36:32.363Z,2.90
2023-04-01T16:39:23.900Z,3.17
2023-04-01T16:42:11.847Z,2.60
2023-04-01T16:44:52.167Z,2.80
2023-04-01T16:47:22.606Z,2.70
2023-04-01T16:50:14.887Z,3.00
2023-04-01T16:52:53.602Z,2.95
2023-04-01T16:55:21.821Z,3.28
2023-04-01T16:57:59.392Z,3.28
2023-04-01T17:00:39.471Z,2.92
2023-04-01T17:03:09.186Z,3.30
2023-04-01T17:05:46.977Z,2.72
2023-04-01T17:08:32.039Z,2.95
2023-04-01T17:11:04.246Z,2.45
2023-04-01T17:13:36.606Z,2.20
2023-04-01T17:16:18.816Z,2.10
2023-04-01T17:18:45.857Z,2.60
2023-04-01T17:21:19.982Z,2.30
2023-04-01T17:23:53.651Z,2.20
2023-04-01T17:26:33.974Z,1.90
2023-04-01T17:29:26.958Z,2.90
2023-04-01T17:32:02.587Z,2.08
2023-04-01T17:34:53.348Z,1.95
2023-04-01T17:37:20.316Z,2.30
2023-04-01T17:39:56.557Z,2.75
2023-04-01T17:42:56.864Z,1.88
2023-04-01T17:45:45.120Z,2.13
2023-04-01T17:48:20.356Z,2.03
2023-04-01T17:50:59.308Z,2.08
2023-04-01T17:53:56.621Z,2.22
2023-04-01T17:56:30.983Z,2.63
2023-04-01T17:59:06.737Z,2.78
2023-04-01T18:01:55.611Z,2.15
2023-04-01T18:04:37.998Z,2.47
2023-04-01T18:07:09.378Z,2.47
2023-04-01T18:09:51.523Z,2.70
2023-04-01T18:12:18.549Z,3.00
2023-04-01T18:14:48.603Z,2.75
2023-04-01T18:17:58.104Z,2.25
2023-04-01T18:20:53.869Z,2.65
2023-04-01T18:23:36.326Z,2.47
2023-04-01T18:26:21.370Z,2.22
2023-04-01T18:28:57.739Z,2.63
2023-04-01T18:31:26.685Z,2.28
2023-04-01T18:34:10.151Z,2.50
2023-04-01T18:36:43.247Z,2.50
2023-04-01T18:39:35.271Z,2.65
2023-04-01T18:42:23.853Z,2.17
2023-04-01T18:44:52.880Z,2.75
2023-04-01T18:47:43.974Z,2.23
2023-04-01T18:50:30.747Z,2.10
2023-04-01T18:53:39.803Z,2.05
2023-04-01T18:56:26.848Z,2.40
2023-04-01T18:59:07.902Z,2.38
2023-04-01T19:01:36.028Z,1.70
2023-04-01T19:04:24.846Z,1.60
2023-04-01T19:06:57.973Z,1.60
2023-04-01T19:09:24.973Z,1.90
2023-04-01T19:12:01.037Z,1.58
2023-04-01T19:14:48.872Z,1.70
2023-04-01T19:17:18.592Z,2.05
2023-04-01T19:20:07.210Z,1.80
2023-04-01T19:22:54.590Z,1.75
2023-04-01T19:25:30.732Z,1.90
2023-04-01T19:28:44.439Z,1.85
2023-04-01T19:31:33.055Z,1.95
2023-04-01T19:34:18.798Z,1.60
2023-04-01T19:36:48.649Z,1.63
2023-04-01T19:39:35.891Z,1.40
2023-04-01T19:42:12.593Z,1.73
2023-04-01T19:45:20.212Z,1.20
2023-04-01T19:48:11.293Z,1.52
2023-04-01T19:50:43.493Z,1.40
2023-04-01T19:53:29.588Z,1.58
2023-04-01T19:56:12.230Z,1.75
2023-04-01T19:59:05.077Z,2.25
2023-04-01T20:01:44.704Z,1.73
2023-04-01T20:04:17.469Z,1.48
2023-04-01T20:06:55.398Z,1.40
2023-04-01T20:09:37.743Z,1.45
2023-04-01T20:12:11.086Z,1.60
2023-04-01T20:14:50.882Z,1.83
2023-04-01T20:17:29.826Z,1.55
2023-04-01T20:20:23.125Z,1.40
2023-04-01T20:22:52.899Z,1.65
2023-04-01T20:25:25.011Z,1.38
2023-04-01T20:27:59.708Z,1.50
2023-04-01T20:30:39.768Z,1.70
2023-04-01T20:35:48.393Z,1.73
2023-04-01T20:38:50.086Z,2.25
2023-04-01T20:41:44.187Z,1.73
2023-04-01T20:44:15.533Z,1.63
2023-04-01T20:47:01.686Z,1.60
2023-04-01T20:49:35.884Z,1.63
2023-04-01T20:52:15.241Z,2.05
2023-04-01T20:54:57.261Z,1.58
2023-04-01T20:57:48.100Z,2.17
2023-04-01T21:00:43.268Z,1.67
2023-04-01T21:03:19.894Z,1.50
2023-04-01T21:06:19.106Z,1.45
2023-04-01T21:08:49.567Z,1.40
2023-04-01T21:11:19.979Z,1.20
2023-04-01T21:14:06.600Z,1.15
2023-04-01T21:17:06.593Z,1.20
2023-04-01T21:19:57.659Z,1.00
2023-04-01T21:22:38.071Z,1.20
2023-04-01T21:25:10.822Z,0.90
2023-04-01T21:27:50.546Z,1.20
2023-04-01T21:30:41.668Z,1.15
2023-04-01T21:33:30.615Z,0.85
2023-04-01T21:36:16.450Z,1.00
2023-04-01T21:39:01.608Z,1.20
2023-04-01T21:41:36.185Z,1.25
2023-04-01T21:44:35.794Z,1.27
2023-04-01T21:47:33.620Z,0.98
2023-04-01T21:50:24.034Z,1.05
2023-04-01T21:53:09.815Z,1.50
2023-04-01T21:56:01.510Z,1.40
2023-04-01T21:58:46.773Z,1.10
2023-04-01T22:02:04.222Z,1.20
2023-04-01T22:04:45.843Z,1.10
2023-04-01T22:07:25.000Z,1.30
2023-04-01T22:09:58.987Z,1.00
2023-04-01T22:12:38.637Z,1.30
2023-04-01T22:15:41.619Z,1.00
2023-04-01T22:18:34.770Z,1.10
2023-04-01T22:21:22.344Z,1.00
2023-04-01T22:24:07.939Z,1.60
2023-04-01T22:26:53.273Z,1.10
2023-04-01T22:29:42.871Z,1.70
2023-04-01T22:32:17.591Z,1.45
2023-04-01T22:34:48.838Z,1.05
2023-04-01T22:37:31.358Z,1.15
2023-04-01T22:40:18.276Z,1.00
2023-04-01T22:42:46.571Z,1.30
2023-04-01T22:45:55.456Z,1.40
2023-04-01T22:48:26.562Z,1.30
2023-04-01T22:51:06.958Z,1.13
2023-04-01T22:53:49.897Z,1.20
2023-04-01T22:56:19.976Z,1.10
2023-04-01T23:01:27.198Z,1.35
2023-04-01T23:03:54.193Z,0.90
2023-04-01T23:06:39.364Z,0.93
2023-04-01T23:09:12.669Z,1.10
2023-04-01T23:11:47.083Z,1.00
2023-04-01T23:14:24.762Z,1.33
2023-04-01T23:16:59.566Z,1.13
2023-04-01T23:19:30.830Z,1.15
2023-04-01T23:22:06.264Z,1.10
2023-04-01T23:24:49.028Z,1.50
2023-04-01T23:27:38.332Z,1.30
2023-04-01T23:30:12.333Z,1.50
2023-04-01T23:32:39.315Z,1.25
2023-04-01T23:35:15.380Z,1.50
2023-04-01T23:37:42.382Z,1.20
2023-04-01T23:40:12.674Z,1.40
2023-04-01T23:42:40.747Z,1.13
2023-04-01T23:45:18.486Z,1.52
2023-04-01T23:47:46.403Z,1.33
2023-04-01T23:50:21.639Z,1.48
2023-04-01T23:52:50.295Z,1.13
2023-04-01T23:55:23.277Z,1.40
2023-04-01T23:58:02.455Z,1.48
